sensor_id;sensor_type;location;lat;lon;timestamp;P1;durP1;ratioP1;P2;durP2;ratioP2
3155;SDS011;1588;50.892;7.082;2022-12-18T00:00:25;15.30;;;5.27;;
3155;SDS011;1588;50.892;7.082;2022-12-18T00:05:29;16.03;;;4.90;;
3155;SDS011;1588;50.892;7.082;2022-12-18T00:10:31;14.73;;;5.87;;
3155;SDS011;1588;50.892;7.082;2022-12-18T00:15:44;11.53;;;5.50;;
3155;SDS011;1588;50.892;7.082;2022-12-18T00:20:48;16.47;;;5.67;;
3155;SDS011;1588;50.892;7.082;2022-12-18T00:25:51;29.27;;;8.90;;
3155;SDS011;1588;50.892;7.082;2022-12-18T00:30:59;13.20;;;5.17;;
3155;SDS011;1588;50.892;7.082;2022-12-18T00:36:04;28.00;;;6.40;;
3155;SDS011;1588;50.892;7.082;2022-12-18T00:41:09;9.33;;;3.60;;
3155;SDS011;1588;50.892;7.082;2022-12-18T00:46:22;24.80;;;7.00;;
3155;SDS011;1588;50.892;7.082;2022-12-18T00:51:26;18.17;;;5.43;;
3155;SDS011;1588;50.892;7.082;2022-12-18T00:56:30;17.27;;;6.07;;
3155;SDS011;1588;50.892;7.082;2022-12-18T01:01:32;29.00;;;7.30;;
3155;SDS011;1588;50.892;7.082;2022-12-18T01:06:36;15.40;;;5.03;;
3155;SDS011;1588;50.892;7.082;2022-12-18T01:11:39;15.50;;;5.53;;
3155;SDS011;1588;50.892;7.082;2022-12-18T01:16:46;23.87;;;6.03;;
3155;SDS011;1588;50.892;7.082;2022-12-18T01:21:51;21.77;;;7.63;;
3155;SDS011;1588;50.892;7.082;2022-12-18T01:26:53;11.40;;;5.07;;
3155;SDS011;1588;50.892;7.082;2022-12-18T01:31:57;17.90;;;6.20;;
3155;SDS011;1588;50.892;7.082;2022-12-18T01:37:04;16.43;;;6.30;;
3155;SDS011;1588;50.892;7.082;2022-12-18T01:42:09;13.90;;;5.07;;
3155;SDS011;1588;50.892;7.082;2022-12-18T01:47:18;12.63;;;5.53;;
3155;SDS011;1588;50.892;7.082;2022-12-18T01:52:26;18.77;;;5.50;;
3155;SDS011;1588;50.892;7.082;2022-12-18T01:57:31;14.33;;;4.80;;
3155;SDS011;1588;50.892;7.082;2022-12-18T02:02:36;14.57;;;6.13;;
3155;SDS011;1588;50.892;7.082;2022-12-18T02:07:42;12.07;;;5.17;;
3155;SDS011;1588;50.892;7.082;2022-12-18T02:12:55;13.03;;;6.30;;
3155;SDS011;1588;50.892;7.082;2022-12-18T02:18:03;18.30;;;6.53;;
3155;SDS011;1588;50.892;7.082;2022-12-18T02:23:15;16.27;;;6.30;;
3155;SDS011;1588;50.892;7.082;2022-12-18T02:28:28;22.07;;;6.57;;
3155;SDS011;1588;50.892;7.082;2022-12-18T02:33:33;21.60;;;7.10;;
3155;SDS011;1588;50.892;7.082;2022-12-18T02:38:38;10.20;;;4.57;;
3155;SDS011;1588;50.892;7.082;2022-12-18T02:43:47;10.83;;;4.87;;
3155;SDS011;1588;50.892;7.082;2022-12-18T02:48:49;17.03;;;6.67;;
3155;SDS011;1588;50.892;7.082;2022-12-18T02:53:56;11.03;;;5.43;;
3155;SDS011;1588;50.892;7.082;2022-12-18T02:59:07;19.07;;;5.03;;
3155;SDS011;1588;50.892;7.082;2022-12-18T03:04:16;10.77;;;5.03;;
3155;SDS011;1588;50.892;7.082;2022-12-18T03:09:24;12.37;;;4.97;;
3155;SDS011;1588;50.892;7.082;2022-12-18T03:14:32;14.73;;;4.80;;
3155;SDS011;1588;50.892;7.082;2022-12-18T03:19:36;14.20;;;5.70;;
3155;SDS011;1588;50.892;7.082;2022-12-18T03:24:40;17.13;;;5.93;;
3155;SDS011;1588;50.892;7.082;2022-12-18T03:29:45;17.80;;;5.97;;
3155;SDS011;1588;50.892;7.082;2022-12-18T03:34:52;7.80;;;4.10;;
3155;SDS011;1588;50.892;7.082;2022-12-18T03:39:59;16.63;;;6.07;;
3155;SDS011;1588;50.892;7.082;2022-12-18T03:45:05;12.37;;;4.60;;
3155;SDS011;1588;50.892;7.082;2022-12-18T03:50:11;14.07;;;5.33;;
3155;SDS011;1588;50.892;7.082;2022-12-18T03:55:18;22.83;;;5.97;;
3155;SDS011;1588;50.892;7.082;2022-12-18T04:00:25;19.47;;;6.33;;
3155;SDS011;1588;50.892;7.082;2022-12-18T04:05:28;15.07;;;5.20;;
3155;SDS011;1588;50.892;7.082;2022-12-18T04:10:31;13.87;;;5.00;;
3155;SDS011;1588;50.892;7.082;2022-12-18T04:15:38;16.70;;;5.80;;
3155;SDS011;1588;50.892;7.082;2022-12-18T04:20:41;22.37;;;6.17;;
3155;SDS011;1588;50.892;7.082;2022-12-18T04:25:43;14.50;;;4.90;;
3155;SDS011;1588;50.892;7.082;2022-12-18T04:30:49;27.80;;;5.37;;
3155;SDS011;1588;50.892;7.082;2022-12-18T04:35:51;13.30;;;5.80;;
3155;SDS011;1588;50.892;7.082;2022-12-18T04:40:54;13.97;;;7.50;;
3155;SDS011;1588;50.892;7.082;2022-12-18T04:46:02;12.83;;;4.47;;
3155;SDS011;1588;50.892;7.082;2022-12-18T04:51:08;18.03;;;4.87;;
3155;SDS011;1588;50.892;7.082;2022-12-18T04:56:11;4.67;;;2.60;;
3155;SDS011;1588;50.892;7.082;2022-12-18T05:01:17;21.03;;;6.97;;
3155;SDS011;1588;50.892;7.082;2022-12-18T05:06:19;13.93;;;5.73;;
3155;SDS011;1588;50.892;7.082;2022-12-18T05:11:22;8.97;;;5.07;;
3155;SDS011;1588;50.892;7.082;2022-12-18T05:16:25;12.77;;;5.57;;
3155;SDS011;1588;50.892;7.082;2022-12-18T05:21:28;11.97;;;5.23;;
3155;SDS011;1588;50.892;7.082;2022-12-18T05:26:30;12.30;;;4.80;;
3155;SDS011;1588;50.892;7.082;2022-12-18T05:31:34;10.43;;;3.50;;
3155;SDS011;1588;50.892;7.082;2022-12-18T05:36:36;9.57;;;4.63;;
3155;SDS011;1588;50.892;7.082;2022-12-18T05:41:38;8.57;;;4.10;;
3155;SDS011;1588;50.892;7.082;2022-12-18T05:46:42;8.93;;;4.33;;
3155;SDS011;1588;50.892;7.082;2022-12-18T05:51:44;12.43;;;4.60;;
3155;SDS011;1588;50.892;7.082;2022-12-18T05:56:47;13.73;;;5.57;;
3155;SDS011;1588;50.892;7.082;2022-12-18T06:01:50;13.97;;;5.03;;
3155;SDS011;1588;50.892;7.082;2022-12-18T06:06:53;18.33;;;6.33;;
3155;SDS011;1588;50.892;7.082;2022-12-18T06:11:55;11.73;;;5.70;;
3155;SDS011;1588;50.892;7.082;2022-12-18T06:16:59;20.57;;;6.17;;
3155;SDS011;1588;50.892;7.082;2022-12-18T06:22:01;19.20;;;6.40;;
3155;SDS011;1588;50.892;7.082;2022-12-18T06:27:05;12.20;;;4.70;;
3155;SDS011;1588;50.892;7.082;2022-12-18T06:32:09;15.77;;;5.60;;
3155;SDS011;1588;50.892;7.082;2022-12-18T06:37:11;14.23;;;5.67;;
3155;SDS011;1588;50.892;7.082;2022-12-18T06:42:14;15.33;;;6.70;;
3155;SDS011;1588;50.892;7.082;2022-12-18T06:47:27;16.73;;;5.53;;
3155;SDS011;1588;50.892;7.082;2022-12-18T06:52:31;21.07;;;6.43;;
3155;SDS011;1588;50.892;7.082;2022-12-18T06:57:34;11.07;;;5.13;;
3155;SDS011;1588;50.892;7.082;2022-12-18T07:02:37;21.10;;;4.93;;
3155;SDS011;1588;50.892;7.082;2022-12-18T07:07:40;10.47;;;4.80;;
3155;SDS011;1588;50.892;7.082;2022-12-18T07:12:44;16.37;;;5.77;;
3155;SDS011;1588;50.892;7.082;2022-12-18T07:17:48;19.70;;;5.23;;
3155;SDS011;1588;50.892;7.082;2022-12-18T07:22:51;10.83;;;4.73;;
3155;SDS011;1588;50.892;7.082;2022-12-18T07:27:53;12.00;;;5.27;;
3155;SDS011;1588;50.892;7.082;2022-12-18T07:32:57;20.53;;;6.50;;
3155;SDS011;1588;50.892;7.082;2022-12-18T07:38:04;10.07;;;4.47;;
3155;SDS011;1588;50.892;7.082;2022-12-18T07:43:07;17.20;;;5.33;;
3155;SDS011;1588;50.892;7.082;2022-12-18T07:48:11;10.17;;;4.13;;
3155;SDS011;1588;50.892;7.082;2022-12-18T07:53:14;19.37;;;6.60;;
3155;SDS011;1588;50.892;7.082;2022-12-18T07:58:18;15.20;;;5.83;;
3155;SDS011;1588;50.892;7.082;2022-12-18T08:03:22;18.03;;;4.50;;
3155;SDS011;1588;50.892;7.082;2022-12-18T08:08:25;11.10;;;4.50;;
3155;SDS011;1588;50.892;7.082;2022-12-18T08:13:27;17.07;;;5.10;;
3155;SDS011;1588;50.892;7.082;2022-12-18T08:18:33;15.70;;;6.07;;
3155;SDS011;1588;50.892;7.082;2022-12-18T08:23:35;15.63;;;5.60;;
3155;SDS011;1588;50.892;7.082;2022-12-18T08:28:38;18.97;;;6.60;;
3155;SDS011;1588;50.892;7.082;2022-12-18T08:33:42;11.20;;;5.70;;
3155;SDS011;1588;50.892;7.082;2022-12-18T08:38:45;11.83;;;6.30;;
3155;SDS011;1588;50.892;7.082;2022-12-18T08:43:48;27.47;;;6.20;;
3155;SDS011;1588;50.892;7.082;2022-12-18T08:49:10;16.20;;;5.93;;
3155;SDS011;1588;50.892;7.082;2022-12-18T08:54:13;20.80;;;7.53;;
3155;SDS011;1588;50.892;7.082;2022-12-18T08:59:15;14.10;;;5.87;;
3155;SDS011;1588;50.892;7.082;2022-12-18T09:04:20;17.07;;;6.97;;
3155;SDS011;1588;50.892;7.082;2022-12-18T09:09:23;16.97;;;7.17;;
3155;SDS011;1588;50.892;7.082;2022-12-18T09:14:26;17.77;;;7.87;;
3155;SDS011;1588;50.892;7.082;2022-12-18T09:19:30;18.13;;;6.80;;
3155;SDS011;1588;50.892;7.082;2022-12-18T09:24:32;16.23;;;6.77;;
3155;SDS011;1588;50.892;7.082;2022-12-18T09:29:35;14.53;;;4.80;;
3155;SDS011;1588;50.892;7.082;2022-12-18T09:34:39;24.00;;;7.67;;
3155;SDS011;1588;50.892;7.082;2022-12-18T09:39:43;17.10;;;6.40;;
3155;SDS011;1588;50.892;7.082;2022-12-18T09:44:48;21.27;;;7.60;;
3155;SDS011;1588;50.892;7.082;2022-12-18T09:49:55;21.30;;;7.87;;
3155;SDS011;1588;50.892;7.082;2022-12-18T09:55:01;21.37;;;7.93;;
3155;SDS011;1588;50.892;7.082;2022-12-18T10:00:15;21.60;;;7.97;;
3155;SDS011;1588;50.892;7.082;2022-12-18T10:05:25;20.47;;;9.13;;
3155;SDS011;1588;50.892;7.082;2022-12-18T10:10:40;20.70;;;8.70;;
3155;SDS011;1588;50.892;7.082;2022-12-18T10:15:51;20.87;;;8.10;;
3155;SDS011;1588;50.892;7.082;2022-12-18T10:21:12;19.90;;;7.57;;
3155;SDS011;1588;50.892;7.082;2022-12-18T10:26:21;19.67;;;8.37;;
3155;SDS011;1588;50.892;7.082;2022-12-18T10:31:24;21.90;;;7.70;;
3155;SDS011;1588;50.892;7.082;2022-12-18T10:36:28;21.87;;;8.27;;
3155;SDS011;1588;50.892;7.082;2022-12-18T10:41:31;27.80;;;8.50;;
3155;SDS011;1588;50.892;7.082;2022-12-18T10:46:35;29.83;;;7.03;;
3155;SDS011;1588;50.892;7.082;2022-12-18T10:51:40;18.77;;;6.93;;
3155;SDS011;1588;50.892;7.082;2022-12-18T10:56:43;18.10;;;7.23;;
3155;SDS011;1588;50.892;7.082;2022-12-18T11:01:48;20.83;;;8.43;;
3155;SDS011;1588;50.892;7.082;2022-12-18T11:06:54;19.77;;;7.93;;
3155;SDS011;1588;50.892;7.082;2022-12-18T11:12:02;19.57;;;6.53;;
3155;SDS011;1588;50.892;7.082;2022-12-18T11:17:17;17.97;;;6.97;;
3155;SDS011;1588;50.892;7.082;2022-12-18T11:22:24;22.83;;;8.43;;
3155;SDS011;1588;50.892;7.082;2022-12-18T11:27:47;22.83;;;9.07;;
3155;SDS011;1588;50.892;7.082;2022-12-18T11:33:19;24.70;;;8.67;;
3155;SDS011;1588;50.892;7.082;2022-12-18T11:38:26;16.27;;;7.60;;
3155;SDS011;1588;50.892;7.082;2022-12-18T11:43:31;18.67;;;7.20;;
3155;SDS011;1588;50.892;7.082;2022-12-18T11:48:41;16.80;;;5.27;;
3155;SDS011;1588;50.892;7.082;2022-12-18T11:53:50;15.97;;;7.30;;
3155;SDS011;1588;50.892;7.082;2022-12-18T11:58:57;24.73;;;9.10;;
3155;SDS011;1588;50.892;7.082;2022-12-18T12:04:23;17.90;;;7.97;;
3155;SDS011;1588;50.892;7.082;2022-12-18T12:09:53;19.53;;;7.50;;
3155;SDS011;1588;50.892;7.082;2022-12-18T12:15:03;22.63;;;8.10;;
3155;SDS011;1588;50.892;7.082;2022-12-18T12:20:16;23.50;;;6.80;;
3155;SDS011;1588;50.892;7.082;2022-12-18T12:25:31;21.37;;;7.93;;
3155;SDS011;1588;50.892;7.082;2022-12-18T12:30:42;23.67;;;9.57;;
3155;SDS011;1588;50.892;7.082;2022-12-18T12:35:57;23.73;;;8.90;;
3155;SDS011;1588;50.892;7.082;2022-12-18T12:41:09;29.23;;;10.60;;
3155;SDS011;1588;50.892;7.082;2022-12-18T12:46:31;28.77;;;10.43;;
3155;SDS011;1588;50.892;7.082;2022-12-18T12:51:38;24.70;;;10.20;;
3155;SDS011;1588;50.892;7.082;2022-12-18T12:56:45;32.97;;;8.87;;
3155;SDS011;1588;50.892;7.082;2022-12-18T13:01:54;20.70;;;8.17;;
3155;SDS011;1588;50.892;7.082;2022-12-18T13:07:09;17.90;;;7.80;;
3155;SDS011;1588;50.892;7.082;2022-12-18T13:12:20;8.63;;;4.13;;
3155;SDS011;1588;50.892;7.082;2022-12-18T13:17:41;27.97;;;11.53;;
3155;SDS011;1588;50.892;7.082;2022-12-18T13:22:45;19.73;;;7.50;;
3155;SDS011;1588;50.892;7.082;2022-12-18T13:27:57;31.77;;;10.63;;
3155;SDS011;1588;50.892;7.082;2022-12-18T13:38:55;28.73;;;9.83;;
3155;SDS011;1588;50.892;7.082;2022-12-18T13:44:30;19.53;;;7.73;;
3155;SDS011;1588;50.892;7.082;2022-12-18T13:49:40;31.57;;;10.27;;
3155;SDS011;1588;50.892;7.082;2022-12-18T13:54:47;26.77;;;10.13;;
3155;SDS011;1588;50.892;7.082;2022-12-18T13:59:53;27.63;;;9.70;;
3155;SDS011;1588;50.892;7.082;2022-12-18T14:04:57;31.50;;;8.97;;
3155;SDS011;1588;50.892;7.082;2022-12-18T14:10:00;29.57;;;10.60;;
3155;SDS011;1588;50.892;7.082;2022-12-18T14:15:06;19.40;;;7.17;;
3155;SDS011;1588;50.892;7.082;2022-12-18T14:20:22;21.33;;;6.47;;
3155;SDS011;1588;50.892;7.082;2022-12-18T14:25:26;34.93;;;11.57;;
3155;SDS011;1588;50.892;7.082;2022-12-18T14:30:31;18.80;;;7.87;;
3155;SDS011;1588;50.892;7.082;2022-12-18T14:35:38;30.63;;;10.97;;
3155;SDS011;1588;50.892;7.082;2022-12-18T14:40:42;32.20;;;10.20;;
3155;SDS011;1588;50.892;7.082;2022-12-18T14:45:47;19.50;;;8.47;;
3155;SDS011;1588;50.892;7.082;2022-12-18T14:50:57;35.07;;;11.03;;
3155;SDS011;1588;50.892;7.082;2022-12-18T14:56:03;18.03;;;6.40;;
3155;SDS011;1588;50.892;7.082;2022-12-18T15:01:20;17.00;;;5.90;;
3155;SDS011;1588;50.892;7.082;2022-12-18T15:06:27;25.43;;;9.17;;
3155;SDS011;1588;50.892;7.082;2022-12-18T15:11:45;30.13;;;10.07;;
3155;SDS011;1588;50.892;7.082;2022-12-18T15:16:51;39.20;;;12.70;;
3155;SDS011;1588;50.892;7.082;2022-12-18T15:21:55;41.07;;;11.73;;
3155;SDS011;1588;50.892;7.082;2022-12-18T15:26:58;33.50;;;11.53;;
3155;SDS011;1588;50.892;7.082;2022-12-18T15:32:04;29.03;;;10.73;;
3155;SDS011;1588;50.892;7.082;2022-12-18T15:37:08;24.80;;;10.07;;
3155;SDS011;1588;50.892;7.082;2022-12-18T15:42:12;25.87;;;9.53;;
3155;SDS011;1588;50.892;7.082;2022-12-18T15:47:34;23.00;;;8.77;;
3155;SDS011;1588;50.892;7.082;2022-12-18T15:52:39;32.23;;;11.87;;
3155;SDS011;1588;50.892;7.082;2022-12-18T15:57:44;17.93;;;7.03;;
3155;SDS011;1588;50.892;7.082;2022-12-18T16:02:48;63.27;;;12.53;;
3155;SDS011;1588;50.892;7.082;2022-12-18T16:07:50;28.33;;;9.40;;
3155;SDS011;1588;50.892;7.082;2022-12-18T16:12:54;37.70;;;11.20;;
3155;SDS011;1588;50.892;7.082;2022-12-18T16:17:58;38.97;;;14.67;;
3155;SDS011;1588;50.892;7.082;2022-12-18T16:23:00;33.23;;;12.50;;
3155;SDS011;1588;50.892;7.082;2022-12-18T16:28:04;31.37;;;12.93;;
3155;SDS011;1588;50.892;7.082;2022-12-18T16:33:10;36.23;;;13.00;;
3155;SDS011;1588;50.892;7.082;2022-12-18T16:38:13;40.23;;;12.37;;
3155;SDS011;1588;50.892;7.082;2022-12-18T16:43:19;24.00;;;10.17;;
3155;SDS011;1588;50.892;7.082;2022-12-18T16:48:26;37.87;;;13.90;;
3155;SDS011;1588;50.892;7.082;2022-12-18T16:53:29;44.63;;;13.23;;
3155;SDS011;1588;50.892;7.082;2022-12-18T16:58:36;34.60;;;13.57;;
3155;SDS011;1588;50.892;7.082;2022-12-18T17:03:44;34.43;;;13.30;;
3155;SDS011;1588;50.892;7.082;2022-12-18T17:08:55;30.17;;;13.50;;
3155;SDS011;1588;50.892;7.082;2022-12-18T17:14:04;34.77;;;11.90;;
3155;SDS011;1588;50.892;7.082;2022-12-18T17:19:10;42.13;;;14.37;;
3155;SDS011;1588;50.892;7.082;2022-12-18T17:24:15;41.33;;;14.87;;
3155;SDS011;1588;50.892;7.082;2022-12-18T17:29:18;43.93;;;14.10;;
3155;SDS011;1588;50.892;7.082;2022-12-18T17:34:34;35.77;;;14.07;;
3155;SDS011;1588;50.892;7.082;2022-12-18T17:39:41;38.70;;;13.27;;
3155;SDS011;1588;50.892;7.082;2022-12-18T17:44:44;41.20;;;14.70;;
3155;SDS011;1588;50.892;7.082;2022-12-18T17:49:51;40.70;;;12.10;;
3155;SDS011;1588;50.892;7.082;2022-12-18T17:54:57;30.47;;;11.30;;
3155;SDS011;1588;50.892;7.082;2022-12-18T18:00:02;39.03;;;13.93;;
3155;SDS011;1588;50.892;7.082;2022-12-18T18:05:07;33.60;;;12.73;;
3155;SDS011;1588;50.892;7.082;2022-12-18T18:10:13;37.77;;;14.53;;
3155;SDS011;1588;50.892;7.082;2022-12-18T18:15:17;39.60;;;15.17;;
3155;SDS011;1588;50.892;7.082;2022-12-18T18:20:22;42.13;;;12.03;;
3155;SDS011;1588;50.892;7.082;2022-12-18T18:25:25;37.13;;;12.47;;
3155;SDS011;1588;50.892;7.082;2022-12-18T18:30:38;36.17;;;13.90;;
3155;SDS011;1588;50.892;7.082;2022-12-18T18:35:43;31.43;;;12.57;;
3155;SDS011;1588;50.892;7.082;2022-12-18T18:40:46;35.83;;;12.97;;
3155;SDS011;1588;50.892;7.082;2022-12-18T18:45:53;49.33;;;15.90;;
3155;SDS011;1588;50.892;7.082;2022-12-18T18:50:58;38.50;;;13.90;;
3155;SDS011;1588;50.892;7.082;2022-12-18T18:56:02;38.27;;;12.00;;
3155;SDS011;1588;50.892;7.082;2022-12-18T19:01:06;35.30;;;13.03;;
3155;SDS011;1588;50.892;7.082;2022-12-18T19:06:14;27.50;;;10.27;;
3155;SDS011;1588;50.892;7.082;2022-12-18T19:11:20;43.90;;;14.30;;
3155;SDS011;1588;50.892;7.082;2022-12-18T19:16:41;62.53;;;15.47;;
3155;SDS011;1588;50.892;7.082;2022-12-18T19:21:46;41.83;;;14.10;;
3155;SDS011;1588;50.892;7.082;2022-12-18T19:26:49;22.43;;;6.63;;
3155;SDS011;1588;50.892;7.082;2022-12-18T19:31:53;34.50;;;12.53;;
3155;SDS011;1588;50.892;7.082;2022-12-18T19:36:57;16.30;;;6.93;;
3155;SDS011;1588;50.892;7.082;2022-12-18T19:42:00;42.97;;;14.50;;
3155;SDS011;1588;50.892;7.082;2022-12-18T19:47:03;47.43;;;16.27;;
3155;SDS011;1588;50.892;7.082;2022-12-18T19:52:07;43.23;;;15.50;;
3155;SDS011;1588;50.892;7.082;2022-12-18T19:57:11;34.67;;;12.77;;
3155;SDS011;1588;50.892;7.082;2022-12-18T20:02:18;22.70;;;8.17;;
3155;SDS011;1588;50.892;7.082;2022-12-18T20:07:23;33.57;;;12.00;;
3155;SDS011;1588;50.892;7.082;2022-12-18T20:12:25;41.30;;;13.53;;
3155;SDS011;1588;50.892;7.082;2022-12-18T20:17:31;33.63;;;10.97;;
3155;SDS011;1588;50.892;7.082;2022-12-18T20:22:36;38.77;;;14.40;;
3155;SDS011;1588;50.892;7.082;2022-12-18T20:27:39;41.47;;;14.33;;
3155;SDS011;1588;50.892;7.082;2022-12-18T20:32:49;37.47;;;11.67;;
3155;SDS011;1588;50.892;7.082;2022-12-18T20:38:06;50.87;;;13.77;;
3155;SDS011;1588;50.892;7.082;2022-12-18T20:43:11;31.77;;;11.83;;
3155;SDS011;1588;50.892;7.082;2022-12-18T20:48:14;34.40;;;12.20;;
3155;SDS011;1588;50.892;7.082;2022-12-18T20:53:21;42.00;;;12.97;;
3155;SDS011;1588;50.892;7.082;2022-12-18T20:58:26;49.37;;;12.57;;
3155;SDS011;1588;50.892;7.082;2022-12-18T21:03:42;38.63;;;15.27;;
3155;SDS011;1588;50.892;7.082;2022-12-18T21:08:47;39.70;;;10.83;;
3155;SDS011;1588;50.892;7.082;2022-12-18T21:14:11;34.20;;;13.17;;
3155;SDS011;1588;50.892;7.082;2022-12-18T21:19:33;43.07;;;13.77;;
3155;SDS011;1588;50.892;7.082;2022-12-18T21:24:39;35.27;;;10.17;;
3155;SDS011;1588;50.892;7.082;2022-12-18T21:35:44;45.77;;;11.97;;
3155;SDS011;1588;50.892;7.082;2022-12-18T21:40:53;34.23;;;12.37;;
3155;SDS011;1588;50.892;7.082;2022-12-18T21:46:16;37.03;;;15.03;;
3155;SDS011;1588;50.892;7.082;2022-12-18T21:51:30;40.30;;;14.63;;
3155;SDS011;1588;50.892;7.082;2022-12-18T21:56:45;33.00;;;12.10;;
3155;SDS011;1588;50.892;7.082;2022-12-18T22:01:49;37.53;;;13.20;;
3155;SDS011;1588;50.892;7.082;2022-12-18T22:07:02;46.67;;;14.77;;
3155;SDS011;1588;50.892;7.082;2022-12-18T22:12:07;27.17;;;9.40;;
3155;SDS011;1588;50.892;7.082;2022-12-18T22:17:33;43.50;;;14.10;;
3155;SDS011;1588;50.892;7.082;2022-12-18T22:22:36;40.87;;;13.87;;
3155;SDS011;1588;50.892;7.082;2022-12-18T22:27:48;41.30;;;14.23;;
3155;SDS011;1588;50.892;7.082;2022-12-18T22:33:07;38.53;;;14.97;;
3155;SDS011;1588;50.892;7.082;2022-12-18T22:38:26;32.83;;;12.50;;
3155;SDS011;1588;50.892;7.082;2022-12-18T22:43:47;36.23;;;9.80;;
3155;SDS011;1588;50.892;7.082;2022-12-18T22:48:51;52.43;;;16.60;;
3155;SDS011;1588;50.892;7.082;2022-12-18T22:54:02;46.57;;;15.00;;
3155;SDS011;1588;50.892;7.082;2022-12-18T22:59:14;28.77;;;9.10;;
3155;SDS011;1588;50.892;7.082;2022-12-18T23:04:23;51.50;;;16.53;;
3155;SDS011;1588;50.892;7.082;2022-12-18T23:09:34;40.60;;;12.20;;
3155;SDS011;1588;50.892;7.082;2022-12-18T23:14:41;45.33;;;15.17;;
3155;SDS011;1588;50.892;7.082;2022-12-18T23:19:54;26.40;;;10.70;;
3155;SDS011;1588;50.892;7.082;2022-12-18T23:30:37;30.17;;;11.47;;
3155;SDS011;1588;50.892;7.082;2022-12-18T23:36:48;57.40;;;15.27;;
3155;SDS011;1588;50.892;7.082;2022-12-18T23:42:35;35.37;;;13.10;;
3155;SDS011;1588;50.892;7.082;2022-12-18T23:53:33;38.27;;;12.17;;
3155;SDS011;1588;50.892;7.082;2022-12-18T23:58:55;47.07;;;15.50;;
